sensor_id;sensor_type;location;lat;lon;timestamp;temperature;humidity
21752;DHT22;11038;50.940;20.564;2022-09-12T00:01:10;9.60;94.80
21752;DHT22;11038;50.940;20.564;2022-09-12T00:02:53;9.50;96.20
21752;DHT22;11038;50.940;20.564;2022-09-12T00:04:31;9.50;99.90
21752;DHT22;11038;50.940;20.564;2022-09-12T00:06:12;9.50;99.90
21752;DHT22;11038;50.940;20.564;2022-09-12T00:07:56;9.50;99.90
21752;DHT22;11038;50.940;20.564;2022-09-12T00:09:34;9.50;99.90
21752;DHT22;11038;50.940;20.564;2022-09-12T00:11:11;9.50;99.90
21752;DHT22;11038;50.940;20.564;2022-09-12T00:12:48;9.50;99.90
21752;DHT22;11038;50.940;20.564;2022-09-12T00:14:26;9.50;99.90
21752;DHT22;11038;50.940;20.564;2022-09-12T00:16:03;9.50;99.90
21752;DHT22;11038;50.940;20.564;2022-09-12T00:17:41;9.50;99.90
21752;DHT22;11038;50.940;20.564;2022-09-12T00:19:18;9.40;99.90
21752;DHT22;11038;50.940;20.564;2022-09-12T00:20:55;9.40;99.90
21752;DHT22;11038;50.940;20.564;2022-09-12T00:22:37;9.40;99.90
21752;DHT22;11038;50.940;20.564;2022-09-12T00:24:14;9.40;99.90
21752;DHT22;11038;50.940;20.564;2022-09-12T00:25:51;9.40;99.90
21752;DHT22;11038;50.940;20.564;2022-09-12T00:27:28;9.40;99.90
21752;DHT22;11038;50.940;20.564;2022-09-12T00:29:05;9.40;99.90
21752;DHT22;11038;50.940;20.564;2022-09-12T00:30:42;9.40;99.90
21752;DHT22;11038;50.940;20.564;2022-09-12T00:32:20;9.30;99.90
21752;DHT22;11038;50.940;20.564;2022-09-12T00:33:59;9.30;99.90
21752;DHT22;11038;50.940;20.564;2022-09-12T00:35:43;9.30;99.90
21752;DHT22;11038;50.940;20.564;2022-09-12T00:37:22;9.30;99.90
21752;DHT22;11038;50.940;20.564;2022-09-12T00:38:59;9.30;99.90
21752;DHT22;11038;50.940;20.564;2022-09-12T00:40:36;9.30;99.90
21752;DHT22;11038;50.940;20.564;2022-09-12T00:42:13;9.30;99.90
21752;DHT22;11038;50.940;20.564;2022-09-12T00:43:58;9.30;99.90
21752;DHT22;11038;50.940;20.564;2022-09-12T00:45:37;9.30;99.90
21752;DHT22;11038;50.940;20.564;2022-09-12T00:47:26;9.30;99.90
21752;DHT22;11038;50.940;20.564;2022-09-12T00:49:11;9.30;99.90
21752;DHT22;11038;50.940;20.564;2022-09-12T00:51:08;9.30;99.90
21752;DHT22;11038;50.940;20.564;2022-09-12T00:53:05;9.30;1.00
21752;DHT22;11038;50.940;20.564;2022-09-12T00:54:55;9.30;1.00
21752;DHT22;11038;50.940;20.564;2022-09-12T00:56:52;9.30;1.00
21752;DHT22;11038;50.940;20.564;2022-09-12T00:58:39;9.30;1.00
21752;DHT22;11038;50.940;20.564;2022-09-12T01:00:24;9.20;1.00
21752;DHT22;11038;50.940;20.564;2022-09-12T01:02:03;9.30;1.00
21752;DHT22;11038;50.940;20.564;2022-09-12T01:03:40;9.20;1.00
21752;DHT22;11038;50.940;20.564;2022-09-12T01:05:17;9.30;1.00
21752;DHT22;11038;50.940;20.564;2022-09-12T01:06:56;9.20;1.00
21752;DHT22;11038;50.940;20.564;2022-09-12T01:08:34;9.30;1.00
21752;DHT22;11038;50.940;20.564;2022-09-12T01:10:13;9.30;1.00
21752;DHT22;11038;50.940;20.564;2022-09-12T01:11:51;9.30;1.00
21752;DHT22;11038;50.940;20.564;2022-09-12T01:13:29;9.30;1.00
21752;DHT22;11038;50.940;20.564;2022-09-12T01:15:10;9.30;1.00
21752;DHT22;11038;50.940;20.564;2022-09-12T01:16:48;9.30;91.90
21752;DHT22;11038;50.940;20.564;2022-09-12T01:31:32;9.20;99.90
21752;DHT22;11038;50.940;20.564;2022-09-12T01:43:28;9.20;1.00
21752;DHT22;11038;50.940;20.564;2022-09-12T01:45:27;9.20;1.00
21752;DHT22;11038;50.940;20.564;2022-09-12T01:49:24;9.30;99.90
21752;DHT22;11038;50.940;20.564;2022-09-12T01:51:37;9.30;99.90
21752;DHT22;11038;50.940;20.564;2022-09-12T01:53:47;9.30;41.90
21752;DHT22;11038;50.940;20.564;2022-09-12T01:55:35;9.30;99.90
21752;DHT22;11038;50.940;20.564;2022-09-12T01:57:24;9.30;70.50
21752;DHT22;11038;50.940;20.564;2022-09-12T01:59:31;9.30;99.90
21752;DHT22;11038;50.940;20.564;2022-09-12T02:01:26;9.20;99.90
21752;DHT22;11038;50.940;20.564;2022-09-12T02:03:08;9.30;99.90
21752;DHT22;11038;50.940;20.564;2022-09-12T02:05:03;9.20;1.00
21752;DHT22;11038;50.940;20.564;2022-09-12T02:06:57;9.20;41.60
21752;DHT22;11038;50.940;20.564;2022-09-12T02:08:59;9.20;99.90
21752;DHT22;11038;50.940;20.564;2022-09-12T02:11:29;9.20;99.90
21752;DHT22;11038;50.940;20.564;2022-09-12T02:12:51;9.20;1.00
21752;DHT22;11038;50.940;20.564;2022-09-12T02:14:41;9.10;99.90
21752;DHT22;11038;50.940;20.564;2022-09-12T02:16:25;9.10;1.00
21752;DHT22;11038;50.940;20.564;2022-09-12T02:18:26;9.10;1.00
21752;DHT22;11038;50.940;20.564;2022-09-12T02:20:40;9.10;99.90
21752;DHT22;11038;50.940;20.564;2022-09-12T02:22:23;9.10;1.00
21752;DHT22;11038;50.940;20.564;2022-09-12T02:24:13;9.10;1.00
21752;DHT22;11038;50.940;20.564;2022-09-12T02:25:59;9.10;1.00
21752;DHT22;11038;50.940;20.564;2022-09-12T02:27:48;9.10;84.60
21752;DHT22;11038;50.940;20.564;2022-09-12T02:29:31;9.10;99.90
21752;DHT22;11038;50.940;20.564;2022-09-12T02:31:22;9.10;99.90
21752;DHT22;11038;50.940;20.564;2022-09-12T02:35:52;9.10;1.00
21752;DHT22;11038;50.940;20.564;2022-09-12T02:39:28;9.10;1.00
21752;DHT22;11038;50.940;20.564;2022-09-12T02:41:06;9.10;1.00
21752;DHT22;11038;50.940;20.564;2022-09-12T02:42:44;9.10;1.00
21752;DHT22;11038;50.940;20.564;2022-09-12T02:44:21;9.10;99.90
21752;DHT22;11038;50.940;20.564;2022-09-12T02:46:01;9.10;1.00
21752;DHT22;11038;50.940;20.564;2022-09-12T02:47:43;9.10;99.90
21752;DHT22;11038;50.940;20.564;2022-09-12T02:49:35;9.10;99.90
21752;DHT22;11038;50.940;20.564;2022-09-12T02:51:13;9.10;1.00
21752;DHT22;11038;50.940;20.564;2022-09-12T02:52:56;9.10;1.00
21752;DHT22;11038;50.940;20.564;2022-09-12T02:54:38;9.10;1.00
21752;DHT22;11038;50.940;20.564;2022-09-12T02:56:19;9.00;1.00
21752;DHT22;11038;50.940;20.564;2022-09-12T02:58:02;9.10;99.90
21752;DHT22;11038;50.940;20.564;2022-09-12T02:59:43;9.10;89.50
21752;DHT22;11038;50.940;20.564;2022-09-12T03:03:57;9.10;99.90
21752;DHT22;11038;50.940;20.564;2022-09-12T03:05:55;9.10;99.90
21752;DHT22;11038;50.940;20.564;2022-09-12T03:16:23;9.20;1.00
21752;DHT22;11038;50.940;20.564;2022-09-12T03:20:40;9.20;99.90
21752;DHT22;11038;50.940;20.564;2022-09-12T03:22:48;9.20;28.30
21752;DHT22;11038;50.940;20.564;2022-09-12T03:24:37;9.20;38.20
21752;DHT22;11038;50.940;20.564;2022-09-12T03:27:00;9.20;1.00
21752;DHT22;11038;50.940;20.564;2022-09-12T03:28:56;9.20;99.90
21752;DHT22;11038;50.940;20.564;2022-09-12T03:30:42;9.20;1.00
21752;DHT22;11038;50.940;20.564;2022-09-12T03:32:43;9.20;1.00
21752;DHT22;11038;50.940;20.564;2022-09-12T03:34:25;9.20;1.00
21752;DHT22;11038;50.940;20.564;2022-09-12T03:36:04;9.20;1.00
21752;DHT22;11038;50.940;20.564;2022-09-12T03:37:42;9.20;1.00
21752;DHT22;11038;50.940;20.564;2022-09-12T03:39:21;9.20;1.00
21752;DHT22;11038;50.940;20.564;2022-09-12T03:41:00;9.20;1.00
21752;DHT22;11038;50.940;20.564;2022-09-12T03:42:37;9.20;1.00
21752;DHT22;11038;50.940;20.564;2022-09-12T03:44:15;9.30;1.00
21752;DHT22;11038;50.940;20.564;2022-09-12T03:45:52;9.30;1.00
21752;DHT22;11038;50.940;20.564;2022-09-12T03:47:29;9.30;1.00
21752;DHT22;11038;50.940;20.564;2022-09-12T03:49:06;9.30;1.00
21752;DHT22;11038;50.940;20.564;2022-09-12T03:50:44;9.40;1.00
21752;DHT22;11038;50.940;20.564;2022-09-12T03:52:20;9.40;1.00
21752;DHT22;11038;50.940;20.564;2022-09-12T03:53:57;9.40;1.00
21752;DHT22;11038;50.940;20.564;2022-09-12T03:55:37;9.40;1.00
21752;DHT22;11038;50.940;20.564;2022-09-12T03:57:14;9.40;1.00
21752;DHT22;11038;50.940;20.564;2022-09-12T03:58:52;9.40;1.00
21752;DHT22;11038;50.940;20.564;2022-09-12T04:00:29;9.40;1.00
21752;DHT22;11038;50.940;20.564;2022-09-12T04:02:06;9.50;1.00
21752;DHT22;11038;50.940;20.564;2022-09-12T04:03:47;9.50;1.00
21752;DHT22;11038;50.940;20.564;2022-09-12T04:05:26;9.50;1.00
21752;DHT22;11038;50.940;20.564;2022-09-12T04:07:03;9.50;1.00
21752;DHT22;11038;50.940;20.564;2022-09-12T04:08:41;9.50;1.00
21752;DHT22;11038;50.940;20.564;2022-09-12T04:10:24;9.60;1.00
21752;DHT22;11038;50.940;20.564;2022-09-12T04:12:01;9.60;1.00
21752;DHT22;11038;50.940;20.564;2022-09-12T04:13:39;9.60;1.00
21752;DHT22;11038;50.940;20.564;2022-09-12T04:15:18;9.60;1.00
21752;DHT22;11038;50.940;20.564;2022-09-12T04:16:56;9.60;1.00
21752;DHT22;11038;50.940;20.564;2022-09-12T04:18:33;9.70;1.00
21752;DHT22;11038;50.940;20.564;2022-09-12T04:20:10;9.70;1.00
21752;DHT22;11038;50.940;20.564;2022-09-12T04:21:48;9.70;1.00
21752;DHT22;11038;50.940;20.564;2022-09-12T04:23:24;9.70;1.00
21752;DHT22;11038;50.940;20.564;2022-09-12T04:25:02;9.70;1.00
21752;DHT22;11038;50.940;20.564;2022-09-12T04:26:39;9.70;1.00
21752;DHT22;11038;50.940;20.564;2022-09-12T04:28:16;9.70;1.00
21752;DHT22;11038;50.940;20.564;2022-09-12T04:29:54;9.70;1.00
21752;DHT22;11038;50.940;20.564;2022-09-12T04:31:31;9.70;1.00
21752;DHT22;11038;50.940;20.564;2022-09-12T04:33:08;9.70;1.00
21752;DHT22;11038;50.940;20.564;2022-09-12T04:34:45;9.80;99.90
21752;DHT22;11038;50.940;20.564;2022-09-12T04:36:22;9.80;99.90
21752;DHT22;11038;50.940;20.564;2022-09-12T04:38:00;9.80;99.90
21752;DHT22;11038;50.940;20.564;2022-09-12T04:39:37;9.80;1.00
21752;DHT22;11038;50.940;20.564;2022-09-12T04:41:20;9.80;99.90
21752;DHT22;11038;50.940;20.564;2022-09-12T04:43:07;9.90;99.90
21752;DHT22;11038;50.940;20.564;2022-09-12T04:44:47;9.90;1.00
21752;DHT22;11038;50.940;20.564;2022-09-12T04:46:26;9.90;1.00
21752;DHT22;11038;50.940;20.564;2022-09-12T04:48:05;9.90;1.00
21752;DHT22;11038;50.940;20.564;2022-09-12T04:49:42;9.90;1.00
21752;DHT22;11038;50.940;20.564;2022-09-12T04:51:20;9.90;1.00
21752;DHT22;11038;50.940;20.564;2022-09-12T04:53:01;9.90;99.90
21752;DHT22;11038;50.940;20.564;2022-09-12T04:54:38;9.90;1.00
21752;DHT22;11038;50.940;20.564;2022-09-12T04:56:15;10.00;1.00
21752;DHT22;11038;50.940;20.564;2022-09-12T04:57:53;10.00;99.90
21752;DHT22;11038;50.940;20.564;2022-09-12T04:59:30;10.00;1.00
21752;DHT22;11038;50.940;20.564;2022-09-12T05:01:08;10.00;99.90
21752;DHT22;11038;50.940;20.564;2022-09-12T05:02:50;10.00;1.00
21752;DHT22;11038;50.940;20.564;2022-09-12T05:04:27;10.10;1.00
21752;DHT22;11038;50.940;20.564;2022-09-12T05:06:06;10.10;1.00
21752;DHT22;11038;50.940;20.564;2022-09-12T05:07:45;10.10;1.00
21752;DHT22;11038;50.940;20.564;2022-09-12T05:09:22;10.10;99.90
21752;DHT22;11038;50.940;20.564;2022-09-12T05:11:06;10.10;99.90
21752;DHT22;11038;50.940;20.564;2022-09-12T05:12:47;10.10;1.00
21752;DHT22;11038;50.940;20.564;2022-09-12T05:14:25;10.00;1.00
21752;DHT22;11038;50.940;20.564;2022-09-12T05:16:02;10.10;1.00
21752;DHT22;11038;50.940;20.564;2022-09-12T05:17:41;10.10;1.00
21752;DHT22;11038;50.940;20.564;2022-09-12T05:19:19;10.10;26.30
21752;DHT22;11038;50.940;20.564;2022-09-12T05:20:58;10.10;1.00
21752;DHT22;11038;50.940;20.564;2022-09-12T05:22:36;10.10;99.90
21752;DHT22;11038;50.940;20.564;2022-09-12T05:24:13;10.10;1.00
21752;DHT22;11038;50.940;20.564;2022-09-12T05:25:50;10.20;1.00
21752;DHT22;11038;50.940;20.564;2022-09-12T05:27:29;10.20;1.00
21752;DHT22;11038;50.940;20.564;2022-09-12T05:29:06;10.10;99.90
21752;DHT22;11038;50.940;20.564;2022-09-12T05:30:43;10.20;1.00
21752;DHT22;11038;50.940;20.564;2022-09-12T05:32:20;10.30;99.90
21752;DHT22;11038;50.940;20.564;2022-09-12T05:33:57;10.30;99.90
21752;DHT22;11038;50.940;20.564;2022-09-12T05:35:34;10.30;1.00
21752;DHT22;11038;50.940;20.564;2022-09-12T05:37:11;10.40;1.00
21752;DHT22;11038;50.940;20.564;2022-09-12T05:38:49;10.40;1.00
21752;DHT22;11038;50.940;20.564;2022-09-12T05:40:26;10.40;1.00
21752;DHT22;11038;50.940;20.564;2022-09-12T05:42:02;10.40;1.00
21752;DHT22;11038;50.940;20.564;2022-09-12T05:43:40;10.50;99.90
21752;DHT22;11038;50.940;20.564;2022-09-12T05:45:18;10.50;1.00
21752;DHT22;11038;50.940;20.564;2022-09-12T05:46:55;10.60;99.90
21752;DHT22;11038;50.940;20.564;2022-09-12T05:48:32;10.60;31.10
21752;DHT22;11038;50.940;20.564;2022-09-12T05:50:10;10.70;1.00
21752;DHT22;11038;50.940;20.564;2022-09-12T05:51:47;10.70;1.00
21752;DHT22;11038;50.940;20.564;2022-09-12T05:53:25;10.70;1.00
21752;DHT22;11038;50.940;20.564;2022-09-12T05:55:04;10.70;99.90
21752;DHT22;11038;50.940;20.564;2022-09-12T05:56:42;10.70;99.90
21752;DHT22;11038;50.940;20.564;2022-09-12T05:58:20;10.80;99.90
21752;DHT22;11038;50.940;20.564;2022-09-12T05:59:58;10.80;99.90
21752;DHT22;11038;50.940;20.564;2022-09-12T06:01:35;10.80;55.00
21752;DHT22;11038;50.940;20.564;2022-09-12T06:03:12;10.80;81.10
21752;DHT22;11038;50.940;20.564;2022-09-12T06:04:50;10.80;2.90
21752;DHT22;11038;50.940;20.564;2022-09-12T06:06:29;10.90;1.00
21752;DHT22;11038;50.940;20.564;2022-09-12T06:08:07;10.90;1.00
21752;DHT22;11038;50.940;20.564;2022-09-12T06:09:44;10.90;1.00
21752;DHT22;11038;50.940;20.564;2022-09-12T06:11:22;10.90;1.00
21752;DHT22;11038;50.940;20.564;2022-09-12T06:13:01;11.00;1.00
21752;DHT22;11038;50.940;20.564;2022-09-12T06:14:39;11.00;1.00
21752;DHT22;11038;50.940;20.564;2022-09-12T06:16:20;11.10;1.00
21752;DHT22;11038;50.940;20.564;2022-09-12T06:18:00;11.10;1.00
21752;DHT22;11038;50.940;20.564;2022-09-12T06:19:37;11.20;1.00
21752;DHT22;11038;50.940;20.564;2022-09-12T06:21:14;11.20;1.00
21752;DHT22;11038;50.940;20.564;2022-09-12T06:22:53;11.30;1.00
21752;DHT22;11038;50.940;20.564;2022-09-12T06:24:44;11.40;1.00
21752;DHT22;11038;50.940;20.564;2022-09-12T06:26:34;11.40;99.90
21752;DHT22;11038;50.940;20.564;2022-09-12T06:28:25;11.50;99.90
21752;DHT22;11038;50.940;20.564;2022-09-12T06:30:16;11.60;99.90
21752;DHT22;11038;50.940;20.564;2022-09-12T06:31:53;11.60;99.90
21752;DHT22;11038;50.940;20.564;2022-09-12T06:33:25;11.70;99.90
21752;DHT22;11038;50.940;20.564;2022-09-12T06:34:57;11.70;99.90
21752;DHT22;11038;50.940;20.564;2022-09-12T06:36:30;11.80;99.90
21752;DHT22;11038;50.940;20.564;2022-09-12T06:38:04;11.90;99.90
21752;DHT22;11038;50.940;20.564;2022-09-12T06:39:37;12.00;99.90
21752;DHT22;11038;50.940;20.564;2022-09-12T06:41:10;12.00;93.30
21752;DHT22;11038;50.940;20.564;2022-09-12T06:42:43;12.00;1.00
21752;DHT22;11038;50.940;20.564;2022-09-12T06:44:16;12.00;1.00
21752;DHT22;11038;50.940;20.564;2022-09-12T06:45:50;11.90;1.00
21752;DHT22;11038;50.940;20.564;2022-09-12T06:47:23;12.00;1.00
21752;DHT22;11038;50.940;20.564;2022-09-12T06:48:55;12.00;1.00
21752;DHT22;11038;50.940;20.564;2022-09-12T06:50:30;12.00;1.00
21752;DHT22;11038;50.940;20.564;2022-09-12T06:52:02;12.00;1.00
21752;DHT22;11038;50.940;20.564;2022-09-12T06:53:35;12.10;1.00
21752;DHT22;11038;50.940;20.564;2022-09-12T06:55:08;12.10;1.00
21752;DHT22;11038;50.940;20.564;2022-09-12T06:56:40;12.10;1.00
21752;DHT22;11038;50.940;20.564;2022-09-12T06:58:12;12.20;1.00
21752;DHT22;11038;50.940;20.564;2022-09-12T06:59:44;12.30;1.00
21752;DHT22;11038;50.940;20.564;2022-09-12T07:01:18;12.30;1.00
21752;DHT22;11038;50.940;20.564;2022-09-12T07:02:52;12.30;1.00
21752;DHT22;11038;50.940;20.564;2022-09-12T07:04:27;12.50;1.00
21752;DHT22;11038;50.940;20.564;2022-09-12T07:06:06;12.40;1.00
21752;DHT22;11038;50.940;20.564;2022-09-12T07:07:41;12.50;1.00
21752;DHT22;11038;50.940;20.564;2022-09-12T07:09:13;12.60;1.00
21752;DHT22;11038;50.940;20.564;2022-09-12T07:10:49;12.70;1.00
21752;DHT22;11038;50.940;20.564;2022-09-12T07:12:21;12.60;1.00
21752;DHT22;11038;50.940;20.564;2022-09-12T07:13:54;12.70;1.00
21752;DHT22;11038;50.940;20.564;2022-09-12T07:15:27;12.70;1.00
21752;DHT22;11038;50.940;20.564;2022-09-12T07:16:59;12.90;1.00
21752;DHT22;11038;50.940;20.564;2022-09-12T07:18:32;13.10;1.00
21752;DHT22;11038;50.940;20.564;2022-09-12T07:20:05;13.20;1.00
21752;DHT22;11038;50.940;20.564;2022-09-12T07:21:38;13.30;1.00
21752;DHT22;11038;50.940;20.564;2022-09-12T07:23:11;13.30;1.00
21752;DHT22;11038;50.940;20.564;2022-09-12T07:24:44;13.40;1.00
21752;DHT22;11038;50.940;20.564;2022-09-12T07:26:16;13.30;1.00
21752;DHT22;11038;50.940;20.564;2022-09-12T07:27:51;13.30;1.00
21752;DHT22;11038;50.940;20.564;2022-09-12T07:29:23;13.40;1.00
21752;DHT22;11038;50.940;20.564;2022-09-12T07:31:12;13.30;1.00
21752;DHT22;11038;50.940;20.564;2022-09-12T07:32:45;13.40;1.00
21752;DHT22;11038;50.940;20.564;2022-09-12T07:34:18;13.40;1.00
21752;DHT22;11038;50.940;20.564;2022-09-12T07:35:50;13.40;1.00
21752;DHT22;11038;50.940;20.564;2022-09-12T07:37:24;13.50;1.00
21752;DHT22;11038;50.940;20.564;2022-09-12T07:38:56;13.50;1.00
21752;DHT22;11038;50.940;20.564;2022-09-12T07:40:31;13.50;1.00
21752;DHT22;11038;50.940;20.564;2022-09-12T07:42:03;13.60;1.00
21752;DHT22;11038;50.940;20.564;2022-09-12T07:43:37;13.70;1.00
21752;DHT22;11038;50.940;20.564;2022-09-12T07:45:09;13.60;1.00
21752;DHT22;11038;50.940;20.564;2022-09-12T07:46:42;13.70;1.00
21752;DHT22;11038;50.940;20.564;2022-09-12T07:48:14;13.70;1.00
21752;DHT22;11038;50.940;20.564;2022-09-12T07:49:47;13.80;1.00
21752;DHT22;11038;50.940;20.564;2022-09-12T07:51:19;13.90;1.00
21752;DHT22;11038;50.940;20.564;2022-09-12T07:52:52;13.90;1.00
21752;DHT22;11038;50.940;20.564;2022-09-12T07:54:25;14.00;1.00
21752;DHT22;11038;50.940;20.564;2022-09-12T07:55:58;14.10;1.00
21752;DHT22;11038;50.940;20.564;2022-09-12T07:57:31;14.20;1.00
21752;DHT22;11038;50.940;20.564;2022-09-12T07:59:03;14.40;1.00
21752;DHT22;11038;50.940;20.564;2022-09-12T08:00:35;14.40;1.00
21752;DHT22;11038;50.940;20.564;2022-09-12T08:02:11;14.50;1.00
21752;DHT22;11038;50.940;20.564;2022-09-12T08:03:48;14.60;1.00
21752;DHT22;11038;50.940;20.564;2022-09-12T08:05:25;14.70;1.00
21752;DHT22;11038;50.940;20.564;2022-09-12T08:06:57;14.80;1.00
21752;DHT22;11038;50.940;20.564;2022-09-12T08:08:29;14.90;1.00
21752;DHT22;11038;50.940;20.564;2022-09-12T08:10:01;15.00;1.00
21752;DHT22;11038;50.940;20.564;2022-09-12T08:11:34;15.00;1.00
21752;DHT22;11038;50.940;20.564;2022-09-12T08:13:06;15.10;1.00
21752;DHT22;11038;50.940;20.564;2022-09-12T08:14:41;15.20;1.00
21752;DHT22;11038;50.940;20.564;2022-09-12T08:16:14;15.20;1.00
21752;DHT22;11038;50.940;20.564;2022-09-12T08:17:52;15.30;1.00
21752;DHT22;11038;50.940;20.564;2022-09-12T08:19:24;15.50;1.00
21752;DHT22;11038;50.940;20.564;2022-09-12T08:20:57;15.50;1.00
21752;DHT22;11038;50.940;20.564;2022-09-12T08:22:30;15.50;1.00
21752;DHT22;11038;50.940;20.564;2022-09-12T08:24:03;15.60;1.00
21752;DHT22;11038;50.940;20.564;2022-09-12T08:25:39;15.70;1.00
21752;DHT22;11038;50.940;20.564;2022-09-12T08:27:11;15.90;1.00
21752;DHT22;11038;50.940;20.564;2022-09-12T08:28:45;16.00;1.00
21752;DHT22;11038;50.940;20.564;2022-09-12T08:30:18;16.10;1.00
21752;DHT22;11038;50.940;20.564;2022-09-12T08:31:50;16.20;1.00
21752;DHT22;11038;50.940;20.564;2022-09-12T08:33:28;16.30;1.00
21752;DHT22;11038;50.940;20.564;2022-09-12T08:35:04;16.80;1.00
21752;DHT22;11038;50.940;20.564;2022-09-12T08:36:36;17.00;1.00
21752;DHT22;11038;50.940;20.564;2022-09-12T08:38:09;17.20;1.00
21752;DHT22;11038;50.940;20.564;2022-09-12T08:39:42;17.60;1.00
21752;DHT22;11038;50.940;20.564;2022-09-12T08:42:54;17.90;1.00
21752;DHT22;11038;50.940;20.564;2022-09-12T08:47:09;18.10;1.00
21752;DHT22;11038;50.940;20.564;2022-09-12T08:48:48;18.00;1.00
21752;DHT22;11038;50.940;20.564;2022-09-12T08:50:24;17.90;1.00
21752;DHT22;11038;50.940;20.564;2022-09-12T08:51:57;17.80;1.00
21752;DHT22;11038;50.940;20.564;2022-09-12T08:53:33;17.60;1.00
21752;DHT22;11038;50.940;20.564;2022-09-12T08:55:12;17.70;1.00
21752;DHT22;11038;50.940;20.564;2022-09-12T08:57:00;17.60;1.00
21752;DHT22;11038;50.940;20.564;2022-09-12T08:58:36;17.60;1.00
21752;DHT22;11038;50.940;20.564;2022-09-12T09:00:12;17.70;1.00
21752;DHT22;11038;50.940;20.564;2022-09-12T09:01:53;17.70;1.00
21752;DHT22;11038;50.940;20.564;2022-09-12T09:05:16;17.40;1.00
21752;DHT22;11038;50.940;20.564;2022-09-12T09:07:06;17.40;1.00
21752;DHT22;11038;50.940;20.564;2022-09-12T09:17:44;16.90;1.00
21752;DHT22;11038;50.940;20.564;2022-09-12T09:19:22;16.80;1.00
21752;DHT22;11038;50.940;20.564;2022-09-12T09:21:27;16.60;1.00
21752;DHT22;11038;50.940;20.564;2022-09-12T09:23:19;16.40;1.00
21752;DHT22;11038;50.940;20.564;2022-09-12T09:25:01;16.50;1.00
21752;DHT22;11038;50.940;20.564;2022-09-12T09:26:39;16.30;1.00
21752;DHT22;11038;50.940;20.564;2022-09-12T09:28:33;16.20;1.00
21752;DHT22;11038;50.940;20.564;2022-09-12T09:30:14;16.10;1.00
21752;DHT22;11038;50.940;20.564;2022-09-12T09:31:51;16.00;1.00
21752;DHT22;11038;50.940;20.564;2022-09-12T09:33:29;15.90;1.00
21752;DHT22;11038;50.940;20.564;2022-09-12T09:39:19;15.40;1.00
21752;DHT22;11038;50.940;20.564;2022-09-12T09:41:11;15.40;1.00
21752;DHT22;11038;50.940;20.564;2022-09-12T09:44:49;15.30;1.00
21752;DHT22;11038;50.940;20.564;2022-09-12T09:46:25;15.30;1.00
21752;DHT22;11038;50.940;20.564;2022-09-12T09:48:00;15.40;1.00
21752;DHT22;11038;50.940;20.564;2022-09-12T09:49:44;15.60;1.00
21752;DHT22;11038;50.940;20.564;2022-09-12T09:51:21;15.60;1.00
21752;DHT22;11038;50.940;20.564;2022-09-12T09:52:58;15.80;1.00
21752;DHT22;11038;50.940;20.564;2022-09-12T09:54:52;15.90;1.00
21752;DHT22;11038;50.940;20.564;2022-09-12T09:56:33;16.00;1.00
21752;DHT22;11038;50.940;20.564;2022-09-12T09:58:05;16.10;1.00
21752;DHT22;11038;50.940;20.564;2022-09-12T09:59:38;16.20;1.00
21752;DHT22;11038;50.940;20.564;2022-09-12T10:01:14;16.20;1.00
21752;DHT22;11038;50.940;20.564;2022-09-12T10:04:54;16.20;1.00
21752;DHT22;11038;50.940;20.564;2022-09-12T10:06:29;16.10;1.00
21752;DHT22;11038;50.940;20.564;2022-09-12T10:08:03;16.00;1.00
21752;DHT22;11038;50.940;20.564;2022-09-12T10:09:38;15.90;1.00
21752;DHT22;11038;50.940;20.564;2022-09-12T10:12:46;15.80;1.00
21752;DHT22;11038;50.940;20.564;2022-09-12T10:15:01;15.80;1.00
21752;DHT22;11038;50.940;20.564;2022-09-12T10:16:24;15.80;1.00
21752;DHT22;11038;50.940;20.564;2022-09-12T10:17:58;15.70;1.00
21752;DHT22;11038;50.940;20.564;2022-09-12T10:19:35;15.60;1.00
21752;DHT22;11038;50.940;20.564;2022-09-12T10:21:18;15.50;1.00
21752;DHT22;11038;50.940;20.564;2022-09-12T10:22:55;15.60;1.00
21752;DHT22;11038;50.940;20.564;2022-09-12T10:24:37;15.50;1.00
21752;DHT22;11038;50.940;20.564;2022-09-12T10:26:13;15.60;1.00
21752;DHT22;11038;50.940;20.564;2022-09-12T10:27:56;15.60;1.00
21752;DHT22;11038;50.940;20.564;2022-09-12T10:29:30;15.50;1.00
21752;DHT22;11038;50.940;20.564;2022-09-12T10:31:12;15.50;1.00
21752;DHT22;11038;50.940;20.564;2022-09-12T10:33:04;15.40;1.00
21752;DHT22;11038;50.940;20.564;2022-09-12T10:34:43;15.40;1.00
21752;DHT22;11038;50.940;20.564;2022-09-12T10:36:16;15.50;1.00
21752;DHT22;11038;50.940;20.564;2022-09-12T10:37:49;15.60;1.00
21752;DHT22;11038;50.940;20.564;2022-09-12T10:39:26;15.50;1.00
21752;DHT22;11038;50.940;20.564;2022-09-12T10:41:00;15.60;1.00
21752;DHT22;11038;50.940;20.564;2022-09-12T10:43:02;15.80;1.00
21752;DHT22;11038;50.940;20.564;2022-09-12T10:44:33;15.90;1.00
21752;DHT22;11038;50.940;20.564;2022-09-12T10:47:47;16.10;1.00
21752;DHT22;11038;50.940;20.564;2022-09-12T10:49:29;16.20;1.00
21752;DHT22;11038;50.940;20.564;2022-09-12T10:51:14;16.30;1.00
21752;DHT22;11038;50.940;20.564;2022-09-12T10:53:20;16.40;1.00
21752;DHT22;11038;50.940;20.564;2022-09-12T10:54:52;16.40;1.00
21752;DHT22;11038;50.940;20.564;2022-09-12T10:58:09;16.40;1.00
21752;DHT22;11038;50.940;20.564;2022-09-12T11:00:13;16.40;1.00
21752;DHT22;11038;50.940;20.564;2022-09-12T11:03:42;16.40;1.00
21752;DHT22;11038;50.940;20.564;2022-09-12T11:11:44;16.40;1.00
21752;DHT22;11038;50.940;20.564;2022-09-12T11:15:36;16.70;1.00
21752;DHT22;11038;50.940;20.564;2022-09-12T11:17:21;16.70;1.00
21752;DHT22;11038;50.940;20.564;2022-09-12T11:19:08;16.80;1.00
21752;DHT22;11038;50.940;20.564;2022-09-12T11:25:10;16.80;1.00
21752;DHT22;11038;50.940;20.564;2022-09-12T11:28:46;16.70;1.00
21752;DHT22;11038;50.940;20.564;2022-09-12T11:30:42;16.70;1.00
21752;DHT22;11038;50.940;20.564;2022-09-12T11:34:54;16.70;1.00
21752;DHT22;11038;50.940;20.564;2022-09-12T11:36:50;16.80;1.00
21752;DHT22;11038;50.940;20.564;2022-09-12T11:41:08;17.00;1.00
21752;DHT22;11038;50.940;20.564;2022-09-12T11:42:51;17.10;1.00
21752;DHT22;11038;50.940;20.564;2022-09-12T11:46:05;17.10;1.00
21752;DHT22;11038;50.940;20.564;2022-09-12T11:47:42;17.20;1.00
21752;DHT22;11038;50.940;20.564;2022-09-12T11:50:50;17.20;1.00
21752;DHT22;11038;50.940;20.564;2022-09-12T11:52:24;17.20;1.00
21752;DHT22;11038;50.940;20.564;2022-09-12T11:56:24;17.30;1.00
21752;DHT22;11038;50.940;20.564;2022-09-12T11:57:51;17.30;1.00
21752;DHT22;11038;50.940;20.564;2022-09-12T12:01:18;17.30;1.00
21752;DHT22;11038;50.940;20.564;2022-09-12T12:05:14;17.30;1.00
21752;DHT22;11038;50.940;20.564;2022-09-12T12:06:55;17.10;1.00
21752;DHT22;11038;50.940;20.564;2022-09-12T12:08:42;17.10;1.00
21752;DHT22;11038;50.940;20.564;2022-09-12T12:10:24;17.10;1.00
21752;DHT22;11038;50.940;20.564;2022-09-12T12:12:03;17.10;1.00
21752;DHT22;11038;50.940;20.564;2022-09-12T12:15:21;17.10;1.00
21752;DHT22;11038;50.940;20.564;2022-09-12T12:16:56;17.20;1.00